Time;durP1;ratioP1;P1;durP2;ratioP2;P2;SDS_P1;SDS_P2;PMS_P1;PMS_P2;Temp;Humidity;BMP_temperature;BMP_pressure;BME280_temperature;BME280_humidity;BME280_pressure;Samples;Min_cycle;Max_cycle;Signal;HPM_P1;HPM_P2
2022/01/26 00:00:29;;;;;;;33.92;16.88;;;;;;;-8.45;60.76;97148.28;5086444;28;20028;-62
2022/01/26 00:05:52;;;;;;;25.55;12.25;;;;;;;-8.45;60.74;97144.09;5095364;28;20035;-62
2022/01/26 00:08:23;;;;;;;26.42;12.80;;;;;;;-8.42;61.16;97140.81;5093996;28;20150;-62
2022/01/26 00:10:48;;;;;;;22.05;10.40;;;;;;;-8.40;60.70;97139.25;5095016;28;20043;-62
2022/01/26 00:13:14;;;;;;;16.05;8.18;;;;;;;-8.37;60.70;97135.16;5094980;28;20025;-62
2022/01/26 00:15:39;;;;;;;18.38;8.90;;;;;;;-8.43;61.04;97137.41;5094867;28;20032;-62
2022/01/26 00:18:05;;;;;;;10.68;6.18;;;;;;;-8.43;60.71;97131.47;5094795;28;20024;-62
2022/01/26 00:20:41;;;;;;;11.85;6.70;;;;;;;-8.45;60.66;97138.13;5094341;28;20401;-62
2022/01/26 00:23:34;;;;;;;11.60;6.85;;;;;;;-8.47;60.90;97133.00;5094645;28;20044;-62
2022/01/26 00:28:45;;;;;;;14.93;6.97;;;;;;;-8.57;61.37;97129.19;5094595;28;20024;-62
2022/01/26 00:39:23;;;;;;;12.27;5.50;;;;;;;-8.69;61.03;97118.47;5094416;28;20385;-62
2022/01/26 00:41:48;;;;;;;9.52;5.03;;;;;;;-8.63;61.50;97116.22;5094378;28;20028;-61
2022/01/26 00:44:14;;;;;;;10.82;5.53;;;;;;;-8.63;61.48;97117.09;5094231;28;20024;-61
2022/01/26 00:46:47;;;;;;;11.70;5.90;;;;;;;-8.65;61.38;97125.41;5094115;28;20020;-62
2022/01/26 00:49:15;;;;;;;10.10;5.68;;;;;;;-8.73;61.32;97120.00;5094312;28;20016;-62
2022/01/26 00:51:41;;;;;;;6.40;4.47;;;;;;;-8.73;61.69;97108.97;5094147;28;20020;-61
2022/01/26 00:54:08;;;;;;;10.00;5.95;;;;;;;-8.71;60.95;97110.78;5094088;28;20028;-61
2022/01/26 00:56:34;;;;;;;9.23;5.10;;;;;;;-8.67;60.57;97099.97;5094003;28;20480;-61
2022/01/26 00:59:00;;;;;;;8.68;5.20;;;;;;;-8.63;60.00;97112.03;5092731;28;20019;-62
2022/01/26 01:01:26;;;;;;;9.30;5.78;;;;;;;-8.61;60.12;97104.50;5094014;28;20520;-62
2022/01/26 01:03:52;;;;;;;8.77;5.05;;;;;;;-8.52;60.30;97106.53;5093954;28;20099;-62
2022/01/26 01:06:27;;;;;;;11.13;5.15;;;;;;;-8.45;60.88;97100.06;5093868;28;20095;-62
2022/01/26 01:08:56;;;;;;;8.23;4.78;;;;;;;-8.54;60.98;97096.34;5093855;28;20028;-62
2022/01/26 01:11:22;;;;;;;11.93;6.07;;;;;;;-8.54;61.81;97088.75;5093762;28;20081;-62
2022/01/26 01:13:48;;;;;;;12.38;7.78;;;;;;;-8.50;61.97;97089.69;5093739;28;20028;-62
2022/01/26 01:16:20;;;;;;;8.65;5.30;;;;;;;-8.47;61.51;97091.50;5093749;28;20020;-62
2022/01/26 01:18:55;;;;;;;11.70;6.10;;;;;;;-8.45;61.24;97095.00;5093492;28;20385;-62
2022/01/26 01:29:21;;;;;;;12.45;5.40;;;;;;;-8.51;61.71;97087.97;5093570;28;20028;-61
2022/01/26 01:31:54;;;;;;;8.02;4.03;;;;;;;-8.53;61.76;97085.34;5093522;28;20036;-61
2022/01/26 01:34:35;;;;;;;10.43;5.78;;;;;;;-8.60;61.62;97087.56;5093466;28;20032;-61
2022/01/26 01:37:05;;;;;;;9.68;5.03;;;;;;;-8.68;62.16;97077.94;5093469;28;20048;-61
2022/01/26 01:39:32;;;;;;;10.85;5.38;;;;;;;-8.82;61.99;97084.06;5093457;28;20074;-61
2022/01/26 01:41:58;;;;;;;11.55;5.57;;;;;;;-8.79;62.20;97079.13;5093232;28;20040;-61
2022/01/26 01:44:23;;;;;;;9.80;4.93;;;;;;;-8.74;62.29;97067.50;5093306;28;20020;-62
2022/01/26 01:46:50;;;;;;;9.43;4.80;;;;;;;-8.74;62.18;97071.72;5093245;28;20103;-61
2022/01/26 01:49:16;;;;;;;13.75;7.82;;;;;;;-8.74;61.99;97080.19;5093177;28;20024;-61
2022/01/26 01:51:48;;;;;;;16.10;8.13;;;;;;;-8.71;61.63;97067.66;5093153;28;20439;-61
2022/01/26 01:54:16;;;;;;;12.43;5.95;;;;;;;-8.80;61.41;97068.09;5093192;28;20032;-61
2022/01/26 01:56:45;;;;;;;10.63;5.55;;;;;;;-8.86;61.43;97079.66;5093132;28;20024;-61
2022/01/26 01:59:11;;;;;;;8.90;4.95;;;;;;;-8.92;61.88;97067.50;5093180;28;20097;-61
2022/01/26 02:01:37;;;;;;;7.60;4.72;;;;;;;-8.94;61.63;97064.91;5093098;28;20431;-61
2022/01/26 02:04:03;;;;;;;7.82;4.75;;;;;;;-8.94;61.34;97069.97;5093206;28;20020;-61
2022/01/26 02:06:29;;;;;;;9.98;4.57;;;;;;;-8.94;61.55;97064.06;5093072;28;20036;-61
2022/01/26 02:08:54;;;;;;;9.88;4.97;;;;;;;-8.95;61.95;97059.75;5092998;28;20047;-61
2022/01/26 02:11:20;;;;;;;11.77;5.78;;;;;;;-8.97;62.08;97068.97;5093059;28;20421;-61
2022/01/26 02:19:26;;;;;;;9.98;4.47;;;;;;;-9.00;61.63;97059.56;5092997;28;20021;-61
2022/01/26 02:49:36;;;;;;;6.75;3.67;;;;;;;-8.91;62.64;97054.91;5096788;28;20127;-61
2022/01/26 03:03:21;;;;;;;7.15;4.38;;;;;;;-9.09;62.86;97037.19;5096240;28;20115;-62
2022/01/26 03:05:54;;;;;;;7.40;4.97;;;;;;;-9.11;62.89;97030.28;5096144;28;20031;-62
2022/01/26 03:08:29;;;;;;;10.35;5.25;;;;;;;-9.15;62.61;97026.75;5096233;28;20092;-62
2022/01/26 03:10:58;;;;;;;7.35;4.07;;;;;;;-9.28;62.60;97018.56;5096137;28;20031;-62
2022/01/26 03:13:28;;;;;;;8.73;4.30;;;;;;;-9.28;62.55;97015.13;5095996;28;20024;-62
2022/01/26 03:15:59;;;;;;;7.88;3.90;;;;;;;-9.37;62.41;97023.19;5094974;28;20123;-62
2022/01/26 03:21:06;;;;;;;7.38;4.28;;;;;;;-9.34;63.64;97025.03;5095720;28;20093;-61
2022/01/26 03:34:17;;;;;;;7.40;4.45;;;;;;;-9.05;63.93;97007.75;5095642;28;20027;-61
2022/01/26 03:36:50;;;;;;;8.85;4.35;;;;;;;-9.01;64.06;97002.91;5095742;28;20381;-61
2022/01/26 03:39:19;;;;;;;8.50;4.50;;;;;;;-9.01;63.98;96997.81;5095733;28;20432;-61
2022/01/26 03:44:30;;;;;;;8.88;4.80;;;;;;;-8.90;63.44;96997.44;5095761;28;20050;-61
2022/01/26 03:46:55;;;;;;;9.57;4.72;;;;;;;-8.85;63.84;97001.06;5095397;28;20539;-61
2022/01/26 03:49:21;;;;;;;7.53;4.57;;;;;;;-8.80;64.57;96998.72;5095474;28;20358;-61
2022/01/26 03:51:47;;;;;;;8.57;4.63;;;;;;;-8.83;64.55;96996.03;5095404;28;20048;-61
2022/01/26 03:54:14;;;;;;;6.35;4.13;;;;;;;-8.84;64.77;96995.19;5095330;28;20119;-61
2022/01/26 03:56:40;;;;;;;6.65;4.15;;;;;;;-8.84;64.74;96995.19;5095258;28;20024;-61
2022/01/26 03:59:06;;;;;;;10.55;4.70;;;;;;;-8.81;63.74;96991.91;5095070;28;20032;-61
2022/01/26 04:01:32;;;;;;;9.02;4.63;;;;;;;-8.80;64.32;96998.72;5095119;28;20032;-61
2022/01/26 04:03:58;;;;;;;11.93;4.57;;;;;;;-8.78;64.03;96998.00;5095076;28;20386;-61
2022/01/26 04:06:25;;;;;;;8.00;4.63;;;;;;;-8.75;63.42;96997.28;5095059;28;20020;-61
2022/01/26 04:08:50;;;;;;;8.40;4.40;;;;;;;-8.71;64.14;97001.69;5094968;28;20027;-61
2022/01/26 04:13:41;;;;;;;6.65;3.90;;;;;;;-8.70;62.81;97007.63;5094888;28;20028;-61
2022/01/26 04:16:08;;;;;;;8.32;4.45;;;;;;;-8.70;62.83;97005.94;5094799;28;20377;-61
2022/01/26 04:18:39;;;;;;;7.88;4.10;;;;;;;-8.58;63.85;97002.25;5094713;28;20012;-61
2022/01/26 04:24:06;;;;;;;9.10;4.35;;;;;;;-8.47;64.59;97005.19;5057403;28;20545;-61
2022/01/26 04:26:38;;;;;;;9.77;4.80;;;;;;;-8.46;62.13;97004.41;5093448;28;20426;-61
2022/01/26 04:29:09;;;;;;;10.02;4.63;;;;;;;-8.39;62.36;97004.75;5094673;28;20036;-61
2022/01/26 04:31:35;;;;;;;12.40;5.07;;;;;;;-8.32;62.10;97002.47;5094688;28;20028;-60
2022/01/26 04:34:01;;;;;;;6.93;4.00;;;;;;;-8.25;63.15;96999.41;5094548;28;20390;-61
2022/01/26 04:36:33;;;;;;;6.50;4.00;;;;;;;-8.18;64.02;97005.63;5094466;28;20035;-61
2022/01/26 04:39:04;;;;;;;6.15;4.00;;;;;;;-8.06;65.29;96992.56;5094327;28;20020;-62
2022/01/26 04:41:45;;;;;;;10.50;4.32;;;;;;;-8.00;65.33;96990.28;5094358;28;20032;-61
2022/01/26 04:44:19;;;;;;;8.23;4.60;;;;;;;-7.92;65.17;96998.25;5094312;28;20095;-62
2022/01/26 04:46:45;;;;;;;7.95;4.38;;;;;;;-7.84;65.21;96989.25;5094190;28;20485;-62
2022/01/26 04:49:11;;;;;;;7.10;3.85;;;;;;;-7.78;65.38;96988.63;5094152;28;20028;-62
2022/01/26 04:51:36;;;;;;;8.25;4.57;;;;;;;-7.69;64.82;96994.09;5094152;28;20051;-62
2022/01/26 04:54:02;;;;;;;7.60;4.03;;;;;;;-7.66;63.94;96996.78;5093641;28;20028;-62
2022/01/26 04:56:28;;;;;;;6.93;3.88;;;;;;;-7.59;63.44;97009.75;5094026;28;20073;-62
2022/01/26 04:58:53;;;;;;;8.07;4.68;;;;;;;-7.53;60.96;96998.13;5094085;28;20028;-62
2022/01/26 05:01:19;;;;;;;8.95;3.92;;;;;;;-7.53;61.14;97000.66;5093982;28;20089;-62
2022/01/26 05:03:44;;;;;;;8.82;4.63;;;;;;;-7.56;60.90;96998.00;5093847;28;20024;-62
2022/01/26 05:06:10;;;;;;;8.48;4.05;;;;;;;-7.55;62.07;96989.59;5093807;28;20106;-62
2022/01/26 05:08:36;;;;;;;8.48;4.22;;;;;;;-7.49;63.19;96994.91;5093945;28;20060;-62
2022/01/26 05:11:03;;;;;;;10.57;4.78;;;;;;;-7.46;63.43;96999.25;5093663;28;20020;-62
2022/01/26 05:13:28;;;;;;;9.05;4.60;;;;;;;-7.42;63.34;96995.16;5093725;28;20071;-62
2022/01/26 05:15:54;;;;;;;7.50;4.38;;;;;;;-7.37;63.14;96981.81;5093738;28;20052;-62
2022/01/26 05:18:19;;;;;;;7.82;4.25;;;;;;;-7.37;63.80;96983.50;5093674;28;20434;-62
2022/01/26 05:20:45;;;;;;;7.93;4.20;;;;;;;-7.34;63.91;96982.75;5093562;28;20036;-62
2022/01/26 05:23:11;;;;;;;7.38;3.83;;;;;;;-7.27;63.41;96974.53;5093484;28;20032;-62
2022/01/26 05:25:36;;;;;;;7.38;4.63;;;;;;;-7.32;63.54;96983.69;5093467;28;20123;-62
2022/01/26 05:28:02;;;;;;;8.70;4.72;;;;;;;-7.40;63.67;96976.63;5093599;28;20099;-62
2022/01/26 05:30:28;;;;;;;7.47;4.07;;;;;;;-7.54;63.98;96977.72;5093546;28;20363;-62
2022/01/26 05:32:53;;;;;;;7.53;4.07;;;;;;;-7.50;62.80;96979.59;5093559;28;20047;-62
2022/01/26 05:35:19;;;;;;;9.85;4.72;;;;;;;-7.40;62.24;96975.75;5093413;28;20448;-61
2022/01/26 05:37:45;;;;;;;4.57;2.40;;;;;;;-7.19;52.72;96973.19;5093371;28;20019;-62
2022/01/26 05:40:12;;;;;;;3.55;2.30;;;;;;;-6.66;48.52;96979.38;5093380;28;20020;-61
2022/01/26 05:42:38;;;;;;;3.67;2.40;;;;;;;-6.32;47.53;96975.50;5092030;28;20032;-62
2022/01/26 05:45:07;;;;;;;7.10;2.55;;;;;;;-5.97;45.67;96967.28;5093319;28;20050;-61
2022/01/26 05:47:34;;;;;;;4.03;2.42;;;;;;;-5.67;44.88;96969.13;5093178;28;20020;-62
2022/01/26 05:50:00;;;;;;;3.28;2.40;;;;;;;-5.34;44.03;96973.59;5093216;28;20089;-62
2022/01/26 05:52:26;;;;;;;3.25;2.45;;;;;;;-5.06;42.83;96963.34;5093161;28;20096;-61
2022/01/26 05:54:52;;;;;;;4.00;2.60;;;;;;;-4.90;43.05;96962.16;5093370;28;20044;-61
2022/01/26 05:57:18;;;;;;;3.75;2.75;;;;;;;-4.69;44.66;96967.00;5093164;28;20415;-61
2022/01/26 05:59:44;;;;;;;4.43;2.30;;;;;;;-4.45;44.29;96976.19;5093147;28;20466;-61
2022/01/26 06:02:10;;;;;;;4.03;2.75;;;;;;;-4.29;44.70;96971.53;5093005;28;20063;-61
2022/01/26 06:04:35;;;;;;;5.75;2.95;;;;;;;-4.14;45.51;96968.53;5093055;28;20034;-61
2022/01/26 06:07:01;;;;;;;7.10;3.33;;;;;;;-4.03;46.54;96979.03;5096775;28;20107;-61
2022/01/26 06:09:27;;;;;;;34.30;12.25;;;;;;;-4.19;47.79;96978.63;5097380;28;20035;-61
2022/01/26 06:11:52;;;;;;;7.75;4.50;;;;;;;-4.33;47.55;96982.50;5097226;28;20370;-62
2022/01/26 06:14:18;;;;;;;16.20;4.93;;;;;;;-4.52;47.73;96981.94;5097181;28;20016;-62
2022/01/26 06:16:44;;;;;;;12.63;5.65;;;;;;;-4.73;48.57;96990.72;5097104;28;20024;-62
2022/01/26 06:19:09;;;;;;;9.70;5.07;;;;;;;-4.90;48.94;96986.81;5097051;28;20060;-62
2022/01/26 06:21:35;;;;;;;16.10;7.90;;;;;;;-5.04;49.66;96989.81;5096767;28;20371;-61
2022/01/26 06:24:01;;;;;;;13.82;7.82;;;;;;;-5.13;49.95;96992.06;5097124;28;20038;-62
2022/01/26 06:26:26;;;;;;;23.45;11.40;;;;;;;-5.16;50.27;96987.75;5096976;28;20369;-61
2022/01/26 06:28:52;;;;;;;16.67;9.40;;;;;;;-5.27;51.31;96984.00;5095782;28;20878;-61
2022/01/26 06:31:18;;;;;;;12.82;8.50;;;;;;;-5.30;52.21;96984.75;5096911;28;20020;-61
2022/01/26 06:33:49;;;;;;;17.02;7.63;;;;;;;-5.36;51.72;96987.13;5096887;28;20461;-61
2022/01/26 06:36:16;;;;;;;10.50;6.28;;;;;;;-5.33;52.72;96988.06;5095659;28;20538;-61
2022/01/26 06:38:44;;;;;;;10.00;5.65;;;;;;;-5.39;52.58;96992.97;5096624;28;20032;-61
2022/01/26 06:41:10;;;;;;;9.75;4.63;;;;;;;-5.40;53.51;96992.94;5096673;28;20036;-61
2022/01/26 06:43:45;;;;;;;8.23;4.35;;;;;;;-5.38;54.11;96993.84;5096611;28;20434;-61
2022/01/26 06:46:18;;;;;;;8.57;5.00;;;;;;;-5.37;54.38;96991.34;5096646;28;20032;-61
2022/01/26 06:49:28;;;;;;;11.63;5.00;;;;;;;-5.32;54.08;96989.81;5096549;28;20478;-61
2022/01/26 06:51:32;;;;;;;7.93;4.13;;;;;;;-5.21;54.38;97000.34;5096247;28;20028;-61
2022/01/26 06:53:57;;;;;;;9.15;4.47;;;;;;;-5.17;54.28;96992.81;5096426;28;20488;-62
2022/01/26 06:56:23;;;;;;;7.45;4.45;;;;;;;-5.09;54.15;96992.22;5096633;28;20103;-61
2022/01/26 06:58:49;;;;;;;7.07;4.25;;;;;;;-4.90;54.41;96987.69;5096444;28;20103;-61
2022/01/26 07:01:15;;;;;;;10.77;4.50;;;;;;;-4.65;54.67;96996.06;5096200;28;20070;-61
2022/01/26 07:03:41;;;;;;;9.15;4.05;;;;;;;-4.47;54.85;96995.75;5096279;28;20134;-62
2022/01/26 07:06:06;;;;;;;7.93;4.70;;;;;;;-4.31;54.67;96997.03;5096177;28;20064;-61
2022/01/26 07:08:32;;;;;;;6.90;3.92;;;;;;;-4.22;53.63;96991.31;5096257;28;20073;-61
2022/01/26 07:10:59;;;;;;;8.32;4.35;;;;;;;-4.29;53.63;97001.31;5096265;28;20016;-61
2022/01/26 07:13:26;;;;;;;8.20;4.28;;;;;;;-4.22;52.39;96998.97;5096193;28;20370;-61
2022/01/26 07:21:26;;;;;;;33.00;16.67;;;;;;;-3.98;52.69;96992.78;5095692;28;20185;-61
2022/01/26 07:23:56;;;;;;;13.05;7.00;;;;;;;-3.85;50.88;96988.84;5094832;28;20052;-61
2022/01/26 07:26:27;;;;;;;8.80;5.35;;;;;;;-3.80;48.98;96994.09;5095967;28;20024;-60
2022/01/26 07:28:53;;;;;;;11.02;4.93;;;;;;;-3.70;48.42;96996.06;5095910;28;20032;-62
2022/01/26 07:31:19;;;;;;;6.68;4.40;;;;;;;-3.60;48.32;96986.94;5095879;28;20032;-63
2022/01/26 07:33:45;;;;;;;5.35;3.97;;;;;;;-3.49;48.12;96994.88;5095755;28;20028;-63
2022/01/26 07:36:11;;;;;;;6.80;3.85;;;;;;;-3.29;49.06;96979.16;5095407;28;20020;-61
2022/01/26 07:38:36;;;;;;;7.43;3.17;;;;;;;-3.09;49.72;96986.44;5095591;28;20028;-61
2022/01/26 07:41:02;;;;;;;5.03;3.10;;;;;;;-2.97;49.65;96981.59;5095840;28;20040;-60
2022/01/26 07:43:28;;;;;;;3.92;2.55;;;;;;;-2.64;49.08;96996.81;5095523;28;20490;-61
2022/01/26 07:45:54;;;;;;;4.35;2.60;;;;;;;-2.39;49.19;97002.44;5095667;28;20020;-61
2022/01/26 07:48:20;;;;;;;6.03;3.00;;;;;;;-2.21;49.33;96994.25;5095595;28;20032;-61
2022/01/26 07:50:46;;;;;;;5.88;3.13;;;;;;;-2.05;48.59;96996.28;5095312;28;20054;-60
2022/01/26 07:53:15;;;;;;;8.25;3.35;;;;;;;-1.92;48.17;96999.09;5095294;28;20028;-61
2022/01/26 07:55:41;;;;;;;5.07;3.15;;;;;;;-1.81;48.96;97000.16;5095218;28;20039;-61
2022/01/26 07:58:09;;;;;;;4.88;2.85;;;;;;;-1.71;48.29;96992.63;5095307;28;20474;-61
2022/01/26 08:00:35;;;;;;;3.95;2.67;;;;;;;-1.65;48.79;96993.59;5095244;28;20027;-61
2022/01/26 08:03:00;;;;;;;5.03;3.30;;;;;;;-1.65;48.14;96990.19;5095090;28;20024;-61
2022/01/26 08:05:26;;;;;;;4.95;3.30;;;;;;;-1.62;48.44;96989.38;5095176;28;20082;-61
2022/01/26 08:07:52;;;;;;;4.57;3.35;;;;;;;-1.59;48.47;96992.88;5095410;28;20028;-62
2022/01/26 08:10:17;;;;;;;6.03;3.33;;;;;;;-1.55;48.10;96994.63;5095060;28;20016;-61
2022/01/26 08:12:43;;;;;;;5.97;3.10;;;;;;;-1.54;49.05;96996.34;5094878;28;20492;-63
2022/01/26 08:15:09;;;;;;;7.47;3.72;;;;;;;-1.50;48.74;96997.28;5094891;28;20029;-61
2022/01/26 08:17:36;;;;;;;5.93;3.35;;;;;;;-1.48;49.47;96999.88;5094872;28;20023;-61
2022/01/26 08:20:05;;;;;;;5.50;3.22;;;;;;;-1.53;49.67;96989.53;5094598;28;20062;-61
2022/01/26 08:22:31;;;;;;;6.00;3.20;;;;;;;-1.55;49.65;96997.22;5094674;28;20050;-61
2022/01/26 08:24:57;;;;;;;6.25;3.17;;;;;;;-1.46;49.67;96993.06;5094845;28;20032;-61
2022/01/26 08:27:27;;;;;;;9.20;3.13;;;;;;;-1.42;50.20;96989.69;5094210;28;20551;-61
2022/01/26 08:30:04;;;;;;;4.93;3.38;;;;;;;-1.47;50.09;96996.47;5094007;28;20432;-61
2022/01/26 08:32:29;;;;;;;4.65;2.90;;;;;;;-1.40;50.13;96990.59;5094660;28;20043;-61
2022/01/26 08:34:55;;;;;;;4.43;3.15;;;;;;;-1.35;50.25;96995.81;5094702;28;20016;-61
2022/01/26 08:37:21;;;;;;;7.45;3.72;;;;;;;-1.32;50.41;96991.56;5094097;28;20035;-60
2022/01/26 08:39:46;;;;;;;5.45;3.53;;;;;;;-1.24;50.16;96996.84;5093169;28;20437;-61
2022/01/26 08:42:12;;;;;;;7.05;3.80;;;;;;;-1.15;50.30;96997.00;5094582;28;20025;-61
2022/01/26 08:44:38;;;;;;;20.25;4.38;;;;;;;-0.99;50.64;97006.66;5094297;28;20102;-64
2022/01/26 08:47:04;;;;;;;14.25;6.28;;;;;;;-0.87;49.57;97000.81;5094264;28;20493;-63
2022/01/26 08:49:31;;;;;;;9.30;5.25;;;;;;;-0.79;49.98;97004.34;5093940;28;20020;-62
2022/01/26 08:51:57;;;;;;;7.95;4.90;;;;;;;-0.83;50.40;97008.59;5094106;28;20065;-62
2022/01/26 08:54:23;;;;;;;7.40;4.95;;;;;;;-0.82;48.77;97010.31;5094133;28;20059;-63
2022/01/26 08:56:53;;;;;;;8.27;4.78;;;;;;;-0.90;48.65;97014.50;5094150;28;20051;-63
2022/01/26 08:59:21;;;;;;;10.18;4.55;;;;;;;-0.85;47.80;97007.69;5094184;28;20051;-63
2022/01/26 09:01:46;;;;;;;9.25;5.13;;;;;;;-0.84;47.79;97008.56;5094032;28;20024;-63
2022/01/26 09:04:13;;;;;;;8.32;5.72;;;;;;;-0.85;48.10;97015.41;5093983;28;20374;-63
2022/01/26 09:06:50;;;;;;;9.40;5.68;;;;;;;-0.82;47.70;97007.75;5094049;28;20055;-63
2022/01/26 09:09:20;;;;;;;12.75;7.50;;;;;;;-0.86;48.75;97015.38;5093970;28;20095;-63
2022/01/26 09:11:47;;;;;;;15.18;7.93;;;;;;;-0.82;48.58;97010.31;5094007;28;20039;-63
2022/01/26 09:14:18;;;;;;;12.13;6.82;;;;;;;-0.79;49.20;96999.22;5093758;28;20098;-64
2022/01/26 09:16:45;;;;;;;8.90;5.93;;;;;;;-0.78;49.07;97006.09;5093931;28;20039;-64
2022/01/26 09:19:28;;;;;;;8.30;5.57;;;;;;;-0.69;49.51;97002.81;5093666;28;20020;-61
2022/01/26 09:22:01;;;;;;;8.55;6.38;;;;;;;-0.69;48.72;97003.66;5093638;28;20059;-63
2022/01/26 09:24:28;;;;;;;10.38;6.53;;;;;;;-0.60;48.81;96999.50;5093637;28;20028;-64
2022/01/26 09:26:54;;;;;;;10.82;6.50;;;;;;;-0.59;48.57;96998.63;5093484;28;20023;-61
2022/01/26 09:29:20;;;;;;;11.20;6.65;;;;;;;-0.63;49.18;96997.75;5093646;28;20017;-62
2022/01/26 09:31:47;;;;;;;9.20;5.93;;;;;;;-0.57;49.08;96996.97;5092275;28;20555;-64
2022/01/26 09:34:18;;;;;;;10.48;6.25;;;;;;;-0.49;49.20;96997.91;5093537;28;20032;-63
2022/01/26 09:36:44;;;;;;;7.90;4.20;;;;;;;-0.47;49.17;96995.38;5093426;28;20031;-64
2022/01/26 09:39:12;;;;;;;8.88;6.05;;;;;;;-0.38;49.39;96985.22;5093237;28;20023;-64
2022/01/26 09:41:38;;;;;;;7.55;4.80;;;;;;;-0.34;49.69;96975.81;5093346;28;20028;-64
2022/01/26 09:44:06;;;;;;;12.13;5.40;;;;;;;-0.41;49.89;96985.16;5093313;28;20546;-61
2022/01/26 09:46:33;;;;;;;8.18;4.72;;;;;;;-0.33;50.04;96987.84;5093452;28;20036;-64
2022/01/26 09:49:00;;;;;;;6.30;4.22;;;;;;;-0.29;50.04;96990.47;5092076;28;20016;-62
2022/01/26 09:51:25;;;;;;;13.88;6.93;;;;;;;-0.20;49.44;96992.28;5093179;28;20024;-64
2022/01/26 09:54:02;;;;;;;8.43;5.30;;;;;;;-0.13;49.21;96981.22;5093291;28;20020;-63
2022/01/26 09:56:28;;;;;;;7.55;4.60;;;;;;;-0.04;48.98;96982.16;5093265;28;20024;-63
2022/01/26 09:58:54;;;;;;;9.18;5.18;;;;;;;0.02;48.72;96978.78;5093254;28;20575;-64
2022/01/26 10:01:20;;;;;;;6.32;4.57;;;;;;;0.12;48.19;96983.22;5093196;28;20363;-61
2022/01/26 10:03:46;;;;;;;8.35;4.63;;;;;;;0.21;47.50;96975.56;5093041;28;20462;-62
2022/01/26 10:06:24;;;;;;;10.52;5.25;;;;;;;0.27;47.92;96976.50;5093038;28;20103;-62
2022/01/26 10:09:28;;;;;;;6.43;4.07;;;;;;;0.26;47.43;96965.31;5093236;28;20024;-61
2022/01/26 10:17:26;;;;;;;10.05;4.50;;;;;;;0.30;49.03;96949.06;5093285;28;20058;-62
2022/01/26 10:20:00;;;;;;;7.95;4.57;;;;;;;0.34;48.66;96945.69;5092816;28;20109;-62
2022/01/26 10:22:32;;;;;;;5.28;4.07;;;;;;;0.25;49.51;96945.59;5093036;28;20028;-61
2022/01/26 10:25:05;;;;;;;5.82;3.72;;;;;;;0.25;50.16;96946.44;5092951;28;20028;-62
2022/01/26 10:27:45;;;;;;;5.60;3.78;;;;;;;0.21;50.09;96946.41;5092883;28;20024;-60
2022/01/26 10:30:16;;;;;;;9.60;4.07;;;;;;;0.22;50.20;96940.41;5092827;28;20028;-63
2022/01/26 10:32:45;;;;;;;5.32;3.90;;;;;;;0.18;50.92;96943.81;5092885;28;20105;-64
2022/01/26 10:35:14;;;;;;;6.60;4.35;;;;;;;0.21;50.06;96946.41;5092740;28;20031;-63
2022/01/26 10:38:00;;;;;;;8.68;5.05;;;;;;;0.31;50.21;96943.09;5092804;28;20107;-64
2022/01/26 10:40:28;;;;;;;7.82;5.20;;;;;;;0.39;50.52;96947.44;5092937;28;20119;-64
2022/01/26 10:43:13;;;;;;;8.23;4.85;;;;;;;0.49;50.67;96944.94;5092747;28;20458;-65
2022/01/26 10:45:55;;;;;;;5.55;4.00;;;;;;;0.54;49.65;96941.56;5092727;28;20481;-63
2022/01/26 10:48:37;;;;;;;5.35;3.80;;;;;;;0.55;50.15;96936.41;5092745;28;20466;-63
2022/01/26 10:53:50;;;;;;;7.97;5.00;;;;;;;0.78;49.80;96940.88;5096671;28;20028;-62
2022/01/26 10:56:16;;;;;;;6.07;4.45;;;;;;;0.86;49.80;96939.22;5096425;28;20036;-61
2022/01/26 10:58:42;;;;;;;7.03;4.38;;;;;;;0.86;49.94;96938.34;5096276;28;20048;-62
2022/01/26 11:01:08;;;;;;;7.75;4.45;;;;;;;0.97;49.80;96936.69;5096452;28;20070;-65
2022/01/26 11:03:34;;;;;;;6.75;4.72;;;;;;;1.08;49.60;96933.34;5096193;28;20024;-62
2022/01/26 11:06:02;;;;;;;7.95;4.28;;;;;;;1.06;49.99;96924.75;5096180;28;20024;-63
2022/01/26 11:08:29;;;;;;;5.35;3.88;;;;;;;1.20;49.05;96925.66;5095994;28;20036;-65
2022/01/26 11:10:55;;;;;;;7.20;5.00;;;;;;;1.42;48.73;96922.34;5096168;28;20107;-64
2022/01/26 11:13:27;;;;;;;7.97;5.03;;;;;;;1.47;48.50;96916.34;5096153;28;20023;-64
2022/01/26 11:16:14;;;;;;;4.88;3.65;;;;;;;1.59;48.11;96920.69;5096040;28;20035;-64
2022/01/26 11:18:51;;;;;;;7.70;4.65;;;;;;;1.73;48.39;96923.34;5095947;28;20498;-64
2022/01/26 11:21:38;;;;;;;8.13;4.28;;;;;;;1.85;47.73;96909.63;5095911;28;20055;-63
2022/01/26 11:24:16;;;;;;;7.03;4.65;;;;;;;1.87;47.49;96912.19;5095897;28;20035;-63
2022/01/26 11:26:44;;;;;;;6.53;4.90;;;;;;;2.04;47.93;96901.91;5096079;28;20016;-63
2022/01/26 11:29:19;;;;;;;7.75;4.72;;;;;;;2.17;47.56;96907.97;5095798;28;20032;-65
2022/01/26 11:31:46;;;;;;;8.70;5.68;;;;;;;2.18;47.79;96904.50;5095794;28;20028;-64
2022/01/26 11:34:11;;;;;;;8.05;4.90;;;;;;;2.22;47.58;96906.22;5095734;28;20028;-64
2022/01/26 11:36:41;;;;;;;7.95;5.60;;;;;;;2.27;47.72;96901.06;5095807;28;20459;-64
2022/01/26 11:42:23;;;;;;;10.65;5.45;;;;;;;2.20;47.67;96895.03;5074067;28;20039;-63
2022/01/26 11:45:08;;;;;;;6.57;4.93;;;;;;;2.12;47.60;96889.88;5095556;28;20115;-63
2022/01/26 11:47:37;;;;;;;9.48;5.50;;;;;;;2.01;47.79;96888.97;5095443;28;20165;-64
2022/01/26 11:50:14;;;;;;;8.60;5.47;;;;;;;2.08;47.69;96893.28;5095434;28;20024;-63
2022/01/26 11:52:45;;;;;;;11.20;6.75;;;;;;;1.99;47.95;96881.25;5095311;28;20028;-63
2022/01/26 11:55:40;;;;;;;15.43;4.63;;;;;;;1.88;47.74;96872.63;5073055;28;20456;-62
2022/01/26 11:58:40;;;;;;;10.43;6.38;;;;;;;1.66;48.29;96862.28;5072880;28;20032;-63
2022/01/26 12:03:44;;;;;;;;;;;;;;;1.40;48.56;96873.34;5073288;28;20069;-63
2022/01/26 12:06:18;;;;;;;8.88;5.05;;;;;;;1.30;49.15;96871.59;5072797;28;20442;-64
2022/01/26 12:08:45;;;;;;;9.25;5.03;;;;;;;1.31;49.80;96873.31;5072810;28;20476;-64
2022/01/26 12:11:13;;;;;;;7.18;4.63;;;;;;;1.38;49.50;96875.94;5072686;28;20044;-62
2022/01/26 12:13:40;;;;;;;5.80;4.05;;;;;;;1.34;49.23;96865.59;5072679;28;20039;-63
2022/01/26 12:16:17;;;;;;;6.28;4.32;;;;;;;1.39;49.46;96867.31;5072638;28;20029;-63
2022/01/26 12:19:09;;;;;;;6.05;4.40;;;;;;;1.42;49.68;96868.19;5072513;28;20479;-62
2022/01/26 12:33:19;;;;;;;9.13;5.07;;;;;;;1.79;49.11;96860.56;5081550;28;20131;-63
2022/01/26 12:35:57;;;;;;;10.10;6.10;;;;;;;1.87;49.61;96858.84;5094424;28;20066;-62
2022/01/26 12:38:40;;;;;;;6.85;4.30;;;;;;;1.88;48.70;96865.75;5094550;28;20538;-62
2022/01/26 12:43:39;;;;;;;7.47;4.50;;;;;;;1.96;48.35;96864.91;5094385;28;20032;-63
2022/01/26 12:46:07;;;;;;;7.45;4.13;;;;;;;1.91;49.08;96864.91;5094328;28;20115;-63
2022/01/26 12:48:34;;;;;;;5.85;4.03;;;;;;;1.85;48.55;96863.16;5094256;28;20024;-62
2022/01/26 12:51:05;;;;;;;6.97;4.90;;;;;;;1.77;48.75;96865.72;5094320;28;20377;-62
2022/01/26 12:53:32;;;;;;;6.40;4.53;;;;;;;1.74;48.68;96864.84;5094317;28;20051;-63
2022/01/26 12:56:14;;;;;;;11.05;4.57;;;;;;;1.76;49.25;96857.97;5094036;28;20020;-62
2022/01/26 12:58:44;;;;;;;8.60;4.57;;;;;;;1.78;49.20;96871.75;5094212;28;20028;-63
2022/01/26 13:01:15;;;;;;;7.17;3.87;;;;;;;1.81;48.56;96873.47;5094168;28;20436;-62
2022/01/26 13:03:42;;;;;;;6.53;4.38;;;;;;;1.85;48.63;96870.03;5093999;28;20304;-63
2022/01/26 13:06:24;;;;;;;7.35;4.90;;;;;;;1.92;48.23;96873.50;5093979;28;20102;-63
2022/01/26 13:08:57;;;;;;;6.97;4.00;;;;;;;1.93;47.81;96867.47;5093796;28;20430;-62
2022/01/26 13:11:35;;;;;;;8.90;5.68;;;;;;;1.89;48.85;96872.63;5093895;28;20028;-63
2022/01/26 13:14:11;;;;;;;8.05;5.38;;;;;;;1.77;48.95;96873.47;5093346;28;20122;-63
2022/01/26 13:16:39;;;;;;;7.47;4.35;;;;;;;1.70;48.81;96882.06;5093822;28;20032;-61
2022/01/26 13:19:33;;;;;;;5.97;4.03;;;;;;;1.71;48.02;96872.56;5093724;28;20028;-61
2022/01/26 13:25:13;;;;;;;5.47;3.85;;;;;;;1.80;48.62;96876.91;5093914;28;20039;-62
2022/01/26 13:30:44;;;;;;;8.68;5.15;;;;;;;1.79;47.74;96875.19;5093723;28;20024;-62
2022/01/26 13:38:59;;;;;;;8.65;4.50;;;;;;;1.55;48.88;96888.03;5093780;28;20450;-62
2022/01/26 13:41:35;;;;;;;5.75;3.60;;;;;;;1.45;49.39;96883.69;5093451;28;20463;-62
2022/01/26 13:44:55;;;;;;;5.93;3.78;;;;;;;1.41;49.46;96874.22;5093364;28;20496;-62
2022/01/26 13:52:18;;;;;;;7.47;4.07;;;;;;;1.41;49.33;96875.06;5093490;28;20046;-63
2022/01/26 14:00:11;;;;;;;6.90;3.53;;;;;;;1.42;49.06;96875.94;5093177;28;20439;-61
2022/01/26 14:02:38;;;;;;;7.50;3.75;;;;;;;1.44;49.14;96881.97;5093237;28;20059;-62
2022/01/26 14:05:05;;;;;;;6.18;3.53;;;;;;;1.40;48.57;96881.09;5093000;28;20055;-62
2022/01/26 14:07:31;;;;;;;5.95;4.10;;;;;;;1.42;49.11;96875.94;5093140;28;20036;-62